Time;durP1;ratioP1;P1;durP2;ratioP2;P2;SDS_P1;SDS_P2;PMS_P1;PMS_P2;Temp;Humidity;BMP_temperature;BMP_pressure;BME280_temperature;BME280_humidity;BME280_pressure;Samples;Min_cycle;Max_cycle;Signal;HPM_P1;HPM_P2
2022/06/04 00:00:09;;;;;;;12.85;10.18;;;;;;;21.83;59.11;95367.22;5009513;28;20223;-67
2022/06/04 00:02:39;;;;;;;10.80;9.82;;;;;;;21.51;60.26;95361.00;5004957;28;20227;-67
2022/06/04 00:05:07;;;;;;;10.65;9.55;;;;;;;21.61;59.74;95360.53;5038922;28;20282;-68
2022/06/04 00:07:32;;;;;;;11.68;9.75;;;;;;;21.46;60.46;95355.44;5005079;28;20249;-68
2022/06/04 00:15:32;;;;;;;12.75;9.73;;;;;;;21.42;61.25;95360.41;5008277;28;20280;-67
2022/06/04 00:17:59;;;;;;;12.95;9.82;;;;;;;21.57;60.58;95360.13;5010515;28;20226;-68
2022/06/04 00:20:25;;;;;;;10.20;9.30;;;;;;;21.47;60.64;95355.25;5008566;28;20217;-63
2022/06/04 00:23:00;;;;;;;11.63;10.15;;;;;;;21.26;61.61;95348.28;5007467;28;20229;-68
2022/06/04 00:25:25;;;;;;;12.30;10.07;;;;;;;21.29;61.35;95352.38;5027882;28;20194;-65
2022/06/04 00:27:51;;;;;;;13.95;9.50;;;;;;;21.34;61.67;95355.25;5011352;28;20201;-67
2022/06/04 00:30:16;;;;;;;11.38;9.80;;;;;;;21.32;61.43;95363.47;5009119;28;20552;-64
2022/06/04 00:32:42;;;;;;;11.20;10.00;;;;;;;21.32;61.77;95357.31;5010165;28;20235;-68
2022/06/04 00:35:08;;;;;;;10.88;9.35;;;;;;;21.32;61.39;95352.78;5006609;28;20234;-67
2022/06/04 00:37:34;;;;;;;11.77;10.18;;;;;;;21.43;61.17;95356.69;5006263;28;20369;-63
2022/06/04 00:40:00;;;;;;;10.45;9.35;;;;;;;21.18;62.09;95351.19;5004417;28;20209;-65
2022/06/04 00:42:26;;;;;;;12.82;10.00;;;;;;;21.12;62.37;95352.03;5006377;28;20228;-65
2022/06/04 00:45:10;;;;;;;10.65;9.75;;;;;;;20.96;63.04;95349.81;5010828;28;20261;-68
2022/06/04 00:47:36;;;;;;;11.80;10.48;;;;;;;21.02;62.78;95344.44;5039124;28;20222;-68
2022/06/04 00:50:05;;;;;;;11.68;10.25;;;;;;;21.13;62.60;95333.09;5047608;28;20257;-62
2022/06/04 00:52:30;;;;;;;14.15;12.25;;;;;;;20.85;63.55;95327.16;5014383;28;20355;-67
2022/06/04 00:54:57;;;;;;;12.63;11.48;;;;;;;20.95;63.48;95329.44;5047008;28;20251;-65
2022/06/04 00:57:43;;;;;;;16.08;12.20;;;;;;;21.01;63.16;95324.09;5045814;28;20441;-68
2022/06/04 01:00:24;;;;;;;12.82;11.40;;;;;;;21.02;63.22;95333.72;4998823;28;20244;-64
2022/06/04 01:03:23;;;;;;;13.80;12.07;;;;;;;21.10;62.85;95330.84;5044575;28;20356;-66
2022/06/04 01:05:58;;;;;;;12.60;11.38;;;;;;;21.13;62.70;95329.59;5041450;28;20233;-63
2022/06/04 01:08:41;;;;;;;12.30;11.20;;;;;;;20.90;63.53;95333.56;5043068;28;20234;-67
2022/06/04 01:11:10;;;;;;;13.48;11.52;;;;;;;20.74;64.28;95328.63;5045523;28;20317;-64
2022/06/04 01:14:04;;;;;;;12.27;11.00;;;;;;;20.72;64.20;95319.19;5007542;28;20258;-65
2022/06/04 01:16:33;;;;;;;14.77;11.23;;;;;;;20.59;64.79;95318.16;5006542;28;20206;-64
2022/06/04 01:19:23;;;;;;;12.05;10.50;;;;;;;20.67;64.49;95317.97;5019513;28;20543;-68
2022/06/04 01:22:13;;;;;;;12.43;11.35;;;;;;;20.67;64.46;95320.63;5052901;28;20239;-67
2022/06/04 01:24:50;;;;;;;13.18;11.60;;;;;;;20.59;64.71;95325.38;5011948;28;20312;-65
2022/06/04 01:27:20;;;;;;;14.00;11.98;;;;;;;20.82;63.92;95320.41;5014201;28;20314;-66
2022/06/04 01:30:16;;;;;;;14.48;13.13;;;;;;;20.78;64.64;95318.34;5040919;28;20281;-62
2022/06/04 01:32:48;;;;;;;13.25;11.93;;;;;;;20.83;63.70;95313.22;5008472;28;20250;-65
2022/06/04 01:35:19;;;;;;;13.95;12.48;;;;;;;20.80;63.55;95309.09;5007360;28;20245;-66
2022/06/04 01:38:01;;;;;;;14.25;12.82;;;;;;;20.53;64.60;95299.44;5041395;28;20261;-62
2022/06/04 01:43:20;;;;;;;13.38;11.70;;;;;;;20.41;65.20;95308.06;5007572;28;20260;-64
2022/06/04 01:45:49;;;;;;;12.77;11.48;;;;;;;20.36;65.48;95310.53;5016255;28;20249;-68
2022/06/04 01:48:16;;;;;;;13.00;11.77;;;;;;;20.39;65.29;95314.63;5008691;28;20226;-64
2022/06/04 01:51:05;;;;;;;15.13;11.38;;;;;;;20.24;65.58;95290.81;4997772;28;20231;-64
2022/06/04 01:53:35;;;;;;;13.95;12.18;;;;;;;20.28;65.88;95302.72;5007347;28;20250;-68
2022/06/04 01:56:09;;;;;;;12.40;11.30;;;;;;;20.33;65.85;95302.13;4997324;28;20219;-64
2022/06/04 01:58:43;;;;;;;13.23;11.90;;;;;;;20.23;66.23;95306.03;5011979;28;20305;-65
2022/06/04 02:01:12;;;;;;;12.68;11.48;;;;;;;20.15;66.37;95308.88;5009264;28;20195;-64
2022/06/04 02:03:44;;;;;;;11.40;10.30;;;;;;;20.00;66.84;95318.94;4999331;28;20342;-67
2022/06/04 02:06:16;;;;;;;12.80;11.38;;;;;;;20.15;66.33;95332.09;5009497;28;20227;-67
2022/06/04 02:09:20;;;;;;;13.93;12.45;;;;;;;20.35;65.43;95337.47;5006695;28;20229;-62
2022/06/04 02:11:55;;;;;;;13.52;12.25;;;;;;;20.34;65.05;95339.31;4965387;28;20227;-64
2022/06/04 02:14:20;;;;;;;14.48;13.27;;;;;;;20.21;65.36;95352.66;4965766;28;20229;-66
2022/06/04 02:16:54;;;;;;;14.93;13.13;;;;;;;20.10;65.91;95358.56;4959146;28;20227;-66
2022/06/04 02:19:19;;;;;;;14.80;13.13;;;;;;;20.09;66.20;95365.75;4960281;28;20301;-64
2022/06/04 02:21:45;;;;;;;14.50;13.10;;;;;;;20.04;66.23;95368.19;4964549;28;20263;-67
2022/06/04 02:24:11;;;;;;;14.60;13.25;;;;;;;19.93;66.74;95368.81;4956519;28;20343;-63
2022/06/04 02:26:38;;;;;;;14.13;12.82;;;;;;;19.87;67.36;95375.78;4956074;28;20236;-66
2022/06/04 02:29:04;;;;;;;15.07;13.52;;;;;;;20.04;66.72;95377.03;4945789;28;20220;-64
2022/06/04 02:32:11;;;;;;;13.30;11.98;;;;;;;19.89;67.33;95368.38;4960366;28;20267;-67
2022/06/04 02:34:42;;;;;;;16.40;14.80;;;;;;;19.97;67.13;95370.06;4908427;29;20218;-66
2022/06/04 02:37:17;;;;;;;16.50;14.90;;;;;;;19.97;67.02;95375.41;4891314;29;20214;-64
2022/06/04 02:40:05;;;;;;;16.63;15.05;;;;;;;20.01;66.92;95373.94;4893326;29;20240;-67
2022/06/04 02:42:39;;;;;;;16.73;15.20;;;;;;;20.11;66.50;95374.41;4879210;29;20230;-68
2022/06/04 02:45:17;;;;;;;16.45;15.00;;;;;;;20.17;65.86;95368.22;4894804;29;20229;-64
2022/06/04 02:47:49;;;;;;;16.23;14.55;;;;;;;20.12;66.05;95368.00;4925642;29;20225;-66
2022/06/04 02:50:36;;;;;;;14.75;13.43;;;;;;;20.01;66.52;95355.25;4910906;29;20234;-68
2022/06/04 02:53:04;;;;;;;15.13;13.60;;;;;;;19.87;66.97;95358.94;4925977;29;20229;-65
2022/06/04 02:55:35;;;;;;;14.80;13.45;;;;;;;19.87;67.29;95358.94;4921094;29;20229;-62
2022/06/04 02:58:07;;;;;;;16.92;13.82;;;;;;;19.86;67.09;95354.59;4932889;29;20212;-67
2022/06/04 03:00:33;;;;;;;15.73;14.10;;;;;;;19.72;67.70;95367.91;4918016;28;20377;-64
2022/06/04 03:02:58;;;;;;;16.05;13.55;;;;;;;19.73;67.69;95371.41;4915775;29;20307;-66
2022/06/04 03:05:26;;;;;;;15.35;13.95;;;;;;;19.80;67.50;95364.25;4909953;29;20308;-63
2022/06/04 03:08:00;;;;;;;15.48;13.82;;;;;;;19.80;67.76;95359.72;4921787;28;20367;-67
2022/06/04 03:10:30;;;;;;;16.80;13.90;;;;;;;19.81;67.86;95355.22;4954273;28;20226;-67
2022/06/04 03:12:55;;;;;;;16.00;14.30;;;;;;;19.85;67.76;95353.78;5011369;28;20221;-64
2022/06/04 03:15:21;;;;;;;17.27;12.88;;;;;;;19.92;66.93;95346.63;5006193;28;20223;-68
2022/06/04 03:17:48;;;;;;;15.38;12.75;;;;;;;19.90;66.92;95347.84;5011386;28;20218;-64
2022/06/04 03:20:19;;;;;;;14.43;13.02;;;;;;;19.90;66.52;95331.84;5037231;28;20226;-65
2022/06/04 03:22:44;;;;;;;13.48;12.18;;;;;;;19.86;66.05;95336.78;5011847;28;20322;-64
2022/06/04 03:25:11;;;;;;;13.43;12.32;;;;;;;19.88;65.80;95334.69;5013864;28;20199;-67
2022/06/04 03:27:36;;;;;;;13.93;12.40;;;;;;;19.79;65.77;95331.41;5005888;28;20227;-65
2022/06/04 03:30:02;;;;;;;13.10;12.00;;;;;;;19.83;66.05;95329.16;5009941;28;20241;-65
2022/06/04 03:32:28;;;;;;;15.27;12.70;;;;;;;19.73;66.37;95326.06;5011126;28;20214;-63
2022/06/04 03:34:53;;;;;;;14.68;13.23;;;;;;;19.83;66.05;95326.47;5008158;28;20211;-67
2022/06/04 03:37:19;;;;;;;14.63;13.27;;;;;;;19.96;66.23;95329.16;5007579;28;20212;-67
2022/06/04 03:39:44;;;;;;;15.25;13.75;;;;;;;20.11;65.45;95330.88;5005003;28;20219;-66
2022/06/04 03:42:09;;;;;;;14.70;12.75;;;;;;;19.75;66.69;95332.84;5007186;28;20280;-65
2022/06/04 03:44:35;;;;;;;13.70;12.40;;;;;;;19.88;66.50;95340.03;5013817;28;20289;-65
2022/06/04 03:47:01;;;;;;;14.77;13.48;;;;;;;19.92;66.31;95343.16;5009336;28;20558;-66
2022/06/04 03:49:27;;;;;;;14.48;13.18;;;;;;;20.02;65.84;95336.41;5011301;28;20538;-66
2022/06/04 03:51:52;;;;;;;15.40;13.82;;;;;;;19.98;66.12;95324.47;5009901;28;20206;-62
2022/06/04 03:54:52;;;;;;;14.38;13.00;;;;;;;20.04;66.15;95336.16;5008641;28;20254;-67
2022/06/04 03:59:51;;;;;;;13.57;12.25;;;;;;;20.11;66.14;95334.34;5009470;28;20237;-65
2022/06/04 04:02:16;;;;;;;13.73;12.48;;;;;;;20.09;66.44;95339.06;4999991;28;20229;-64
2022/06/04 04:04:41;;;;;;;16.75;14.27;;;;;;;20.17;66.54;95333.53;4987755;28;20204;-63
2022/06/04 04:07:07;;;;;;;14.43;13.05;;;;;;;20.26;65.82;95336.81;5014690;28;20272;-65
2022/06/04 04:09:32;;;;;;;16.08;13.60;;;;;;;20.35;65.37;95342.81;5005691;28;20227;-63
2022/06/04 04:11:58;;;;;;;16.98;14.25;;;;;;;20.27;65.30;95343.81;5007377;28;20219;-65
2022/06/04 04:14:24;;;;;;;14.95;13.45;;;;;;;20.40;65.06;95354.50;5043764;28;20229;-67
2022/06/04 04:16:49;;;;;;;16.35;14.50;;;;;;;20.61;64.01;95358.03;5007746;28;20218;-65
2022/06/04 04:19:15;;;;;;;16.17;14.20;;;;;;;20.80;63.75;95361.75;5005427;28;20241;-63
2022/06/04 04:21:40;;;;;;;14.38;13.00;;;;;;;20.84;63.58;95357.63;5036826;28;20242;-68
2022/06/04 04:24:06;;;;;;;15.50;13.90;;;;;;;20.89;63.41;95357.81;5004871;28;20249;-63
2022/06/04 04:26:31;;;;;;;14.55;13.15;;;;;;;20.98;63.04;95359.22;5005924;28;20317;-61
2022/06/04 04:28:56;;;;;;;16.58;14.38;;;;;;;21.02;62.75;95357.78;5036512;28;20225;-61
2022/06/04 04:31:22;;;;;;;16.23;14.65;;;;;;;21.17;62.27;95362.06;5010459;28;20297;-65
2022/06/04 04:33:47;;;;;;;15.40;13.90;;;;;;;21.14;62.51;95366.84;5007733;28;20323;-65
2022/06/04 04:36:13;;;;;;;17.77;15.45;;;;;;;21.24;62.53;95378.94;5009611;28;20227;-67
2022/06/04 04:38:39;;;;;;;18.80;17.08;;;;;;;21.28;62.30;95378.31;5008811;28;20579;-67
2022/06/04 04:41:09;;;;;;;18.25;16.45;;;;;;;21.41;61.83;95379.31;5039644;28;20299;-64
2022/06/04 04:43:34;;;;;;;16.95;15.40;;;;;;;21.36;62.13;95387.97;5005264;28;20215;-63
2022/06/04 04:46:09;;;;;;;17.85;15.68;;;;;;;21.40;62.25;95399.91;5005550;28;20213;-63
2022/06/04 04:48:34;;;;;;;17.80;16.10;;;;;;;21.30;62.97;95396.81;5005748;28;20249;-67
2022/06/04 04:51:00;;;;;;;18.30;16.77;;;;;;;21.44;62.81;95403.81;5043418;28;20237;-61
2022/06/04 04:53:25;;;;;;;19.20;17.50;;;;;;;21.44;62.75;95406.50;5006628;28;20230;-63
2022/06/04 04:55:51;;;;;;;17.45;16.02;;;;;;;21.49;62.36;95409.38;5008961;28;20229;-64
2022/06/04 04:58:16;;;;;;;17.67;15.82;;;;;;;21.53;62.18;95417.78;5014156;28;20208;-62
2022/06/04 05:00:44;;;;;;;17.95;16.05;;;;;;;21.63;61.94;95415.50;5004648;28;20215;-64
2022/06/04 05:03:12;;;;;;;17.55;16.00;;;;;;;21.67;61.52;95418.56;4994262;28;20388;-66
2022/06/04 05:05:38;;;;;;;17.38;15.57;;;;;;;21.73;61.04;95407.84;5036623;28;20230;-66
2022/06/04 05:08:03;;;;;;;17.67;16.02;;;;;;;21.75;61.18;95405.75;5009242;28;20231;-65
2022/06/04 05:10:29;;;;;;;17.50;15.77;;;;;;;21.97;60.61;95408.16;5010088;28;20210;-65
2022/06/04 05:12:56;;;;;;;20.27;18.27;;;;;;;22.06;60.28;95406.06;5008749;28;20214;-68
2022/06/04 05:15:25;;;;;;;18.50;16.45;;;;;;;21.96;60.12;95393.94;5007171;28;20219;-64
2022/06/04 05:17:50;;;;;;;17.98;16.17;;;;;;;22.00;60.04;95400.53;5004898;28;20269;-65
2022/06/04 05:20:17;;;;;;;18.17;16.42;;;;;;;22.02;60.07;95402.97;5024549;28;20231;-61
2022/06/04 05:22:43;;;;;;;18.40;16.90;;;;;;;21.86;60.57;95409.63;5005019;28;20242;-68
2022/06/04 05:25:17;;;;;;;18.17;16.55;;;;;;;22.10;60.12;95416.13;5021705;28;20213;-67
2022/06/04 05:27:43;;;;;;;17.52;15.82;;;;;;;22.09;59.92;95411.00;5011702;28;20222;-64
2022/06/04 05:30:09;;;;;;;19.35;17.33;;;;;;;22.03;60.20;95420.69;5040622;28;20226;-65
2022/06/04 05:32:34;;;;;;;19.42;17.73;;;;;;;22.07;60.54;95407.69;5003876;28;20235;-65
2022/06/04 05:35:00;;;;;;;19.33;17.45;;;;;;;22.16;59.98;95406.41;5008725;28;20357;-62
2022/06/04 05:37:25;;;;;;;17.88;16.25;;;;;;;22.15;59.99;95410.13;5011218;28;20221;-67
2022/06/04 05:39:50;;;;;;;18.80;16.90;;;;;;;22.18;59.74;95407.00;5041520;28;20221;-66
2022/06/04 05:42:16;;;;;;;19.23;17.48;;;;;;;22.15;59.58;95405.59;5014099;28;20215;-68
2022/06/04 05:44:41;;;;;;;17.73;16.13;;;;;;;22.19;59.48;95404.16;5018696;28;20236;-67
2022/06/04 05:47:07;;;;;;;17.40;15.80;;;;;;;22.19;59.89;95398.00;5022831;28;20289;-63
2022/06/04 05:49:32;;;;;;;18.38;16.00;;;;;;;22.25;60.49;95402.47;5025605;28;20219;-62
2022/06/04 05:51:58;;;;;;;19.42;17.73;;;;;;;22.12;60.59;95397.97;5043550;28;20222;-66
2022/06/04 05:54:23;;;;;;;18.02;16.48;;;;;;;22.10;60.37;95418.78;5042358;28;20222;-68
2022/06/04 05:56:50;;;;;;;17.10;15.40;;;;;;;22.25;60.14;95418.56;5008732;28;20214;-67
2022/06/04 05:59:19;;;;;;;17.50;15.20;;;;;;;22.33;60.24;95414.81;5006734;28;20218;-63
2022/06/04 06:01:45;;;;;;;15.63;14.00;;;;;;;22.50;59.62;95421.28;5011903;28;22422;-68
2022/06/04 06:04:12;;;;;;;15.27;13.73;;;;;;;22.43;60.04;95421.34;5016131;28;20206;-66
2022/06/04 06:06:39;;;;;;;15.60;14.05;;;;;;;;;;5011447;28;20283;-67
2022/06/04 06:09:12;;;;;;;15.80;14.18;;;;;;;22.43;59.42;95418.66;5046208;28;20223;-63
2022/06/04 06:11:39;;;;;;;17.50;15.75;;;;;;;22.37;59.91;95418.69;5013174;28;20321;-64
2022/06/04 06:14:07;;;;;;;16.95;15.25;;;;;;;22.46;59.17;95417.41;5006505;28;20404;-62
2022/06/04 06:16:34;;;;;;;17.10;15.60;;;;;;;22.44;59.15;95414.13;5010433;28;20213;-67
2022/06/04 06:19:00;;;;;;;17.92;16.13;;;;;;;22.57;58.79;95413.22;5011972;28;20199;-68
2022/06/04 06:21:29;;;;;;;15.95;14.65;;;;;;;22.57;58.60;95408.66;5012292;28;20235;-63
2022/06/04 06:23:55;;;;;;;16.65;15.15;;;;;;;22.64;58.61;95403.25;5043076;28;20231;-64
2022/06/04 06:26:23;;;;;;;17.55;14.30;;;;;;;22.71;58.29;95400.53;5002960;28;20246;-68
2022/06/04 06:28:49;;;;;;;15.93;13.45;;;;;;;22.66;59.34;95398.50;5005631;28;20229;-63
2022/06/04 06:31:18;;;;;;;14.85;13.52;;;;;;;22.56;58.46;95390.09;5010660;28;20218;-63
2022/06/04 06:33:44;;;;;;;13.65;12.32;;;;;;;22.46;58.68;95391.41;5010191;28;20230;-65
2022/06/04 06:36:12;;;;;;;14.02;12.68;;;;;;;22.37;59.02;95392.72;5014570;28;20226;-65
2022/06/04 06:38:38;;;;;;;13.30;12.10;;;;;;;22.41;58.49;95393.13;5042359;28;20309;-63
2022/06/04 06:41:05;;;;;;;13.70;12.40;;;;;;;22.53;57.59;95396.72;5011013;28;20215;-61
2022/06/04 06:43:36;;;;;;;12.90;11.73;;;;;;;22.63;57.14;95386.34;5007155;28;20215;-65
2022/06/04 06:46:12;;;;;;;13.07;11.85;;;;;;;22.56;57.75;95387.44;5023906;28;20275;-67
2022/06/04 06:48:40;;;;;;;11.75;10.55;;;;;;;22.68;57.78;95385.69;5012573;28;20225;-66
2022/06/04 06:51:08;;;;;;;15.30;10.77;;;;;;;22.75;57.40;95381.13;5038765;28;20226;-67
2022/06/04 06:53:34;;;;;;;12.75;11.40;;;;;;;22.80;57.25;95380.44;5010496;28;20230;-67
2022/06/04 06:56:18;;;;;;;12.68;11.13;;;;;;;22.85;56.67;95378.75;5013255;28;20223;-65
2022/06/04 06:58:44;;;;;;;12.73;11.50;;;;;;;22.83;56.91;95380.03;4994400;28;20200;-62
2022/06/04 07:01:11;;;;;;;11.88;10.13;;;;;;;23.03;56.02;95371.81;5031296;28;20191;-67
2022/06/04 07:03:38;;;;;;;12.68;10.25;;;;;;;23.30;54.55;95367.00;5012941;28;20302;-66
2022/06/04 07:06:05;;;;;;;11.38;9.77;;;;;;;23.53;54.42;95369.03;5035655;28;20226;-64
2022/06/04 07:08:31;;;;;;;11.50;10.40;;;;;;;23.75;54.25;95372.91;5006967;28;20285;-67
2022/06/04 07:10:56;;;;;;;11.05;9.77;;;;;;;24.02;52.95;95361.84;5019535;28;20227;-64
2022/06/04 07:13:22;;;;;;;11.25;10.07;;;;;;;24.13;53.15;95361.06;5041697;28;20207;-61
2022/06/04 07:15:49;;;;;;;12.52;9.18;;;;;;;24.20;52.48;95359.13;5009680;28;20233;-63
2022/06/04 07:18:15;;;;;;;13.05;9.23;;;;;;;24.40;52.11;95347.25;5008119;28;20277;-67
2022/06/04 07:20:42;;;;;;;10.35;9.20;;;;;;;24.49;52.10;95353.16;5009141;28;20248;-62
2022/06/04 07:23:09;;;;;;;11.00;8.43;;;;;;;24.58;52.33;95347.19;5011053;28;20752;-68
2022/06/04 07:25:35;;;;;;;13.48;9.50;;;;;;;24.67;51.06;95349.53;5006494;28;20215;-62
2022/06/04 07:28:00;;;;;;;11.20;8.90;;;;;;;24.61;51.33;95349.41;5013025;28;20210;-68
2022/06/04 07:30:26;;;;;;;12.95;8.43;;;;;;;24.68;51.70;95332.38;5009347;28;20219;-66
2022/06/04 07:32:52;;;;;;;9.38;8.40;;;;;;;24.68;51.63;95327.81;5008357;28;20309;-63
2022/06/04 07:35:18;;;;;;;8.45;7.65;;;;;;;24.77;51.60;95331.78;5013506;28;20222;-62
2022/06/04 07:37:43;;;;;;;8.30;6.90;;;;;;;24.79;50.96;95323.50;5004338;28;20324;-65
2022/06/04 07:40:10;;;;;;;8.45;7.68;;;;;;;25.09;50.32;95324.19;5007385;28;20194;-63
2022/06/04 07:42:35;;;;;;;11.68;7.93;;;;;;;25.22;49.99;95322.34;5015357;28;20249;-64
2022/06/04 07:45:07;;;;;;;12.45;9.23;;;;;;;25.46;50.05;95321.25;5014441;28;20254;-68
2022/06/04 07:47:34;;;;;;;10.68;8.20;;;;;;;25.68;49.89;95329.50;5009924;28;20231;-68
2022/06/04 07:50:00;;;;;;;10.20;9.15;;;;;;;25.66;49.00;95320.84;5017523;28;20218;-63
2022/06/04 07:52:26;;;;;;;9.50;7.88;;;;;;;25.78;49.18;95320.81;4997533;28;20211;-67
2022/06/04 07:54:53;;;;;;;10.55;7.72;;;;;;;26.06;48.54;95316.50;5006251;28;20199;-68
2022/06/04 07:57:18;;;;;;;13.80;7.68;;;;;;;26.02;48.62;95321.56;5008942;28;20222;-69
2022/06/04 07:59:45;;;;;;;9.27;7.68;;;;;;;26.17;48.91;95319.16;5007362;28;20226;-66
2022/06/04 08:02:11;;;;;;;9.88;7.32;;;;;;;26.22;47.50;95315.72;5011752;28;20219;-64
2022/06/04 08:04:37;;;;;;;11.10;6.88;;;;;;;26.46;46.37;95323.69;5000534;28;20203;-68
2022/06/04 08:07:04;;;;;;;8.68;6.25;;;;;;;26.50;45.32;95311.34;5011478;28;20245;-67
2022/06/04 08:09:33;;;;;;;11.63;7.20;;;;;;;26.67;45.15;95306.00;4996593;28;20275;-67
2022/06/04 08:11:59;;;;;;;9.82;6.70;;;;;;;26.71;46.94;95309.84;5011322;28;20226;-62
2022/06/04 08:14:25;;;;;;;8.43;6.28;;;;;;;26.72;45.38;95301.50;5009765;28;20222;-63
2022/06/04 08:16:58;;;;;;;8.13;6.93;;;;;;;26.94;46.68;95311.53;5007935;28;20226;-65
2022/06/04 08:19:27;;;;;;;7.85;6.82;;;;;;;26.92;45.17;95313.66;5008590;28;20198;-63
2022/06/04 08:21:53;;;;;;;8.82;6.85;;;;;;;26.87;44.76;95308.19;5006628;28;20225;-63
2022/06/04 08:24:20;;;;;;;7.57;5.57;;;;;;;27.02;43.33;95303.84;5013392;28;20222;-68
2022/06/04 08:26:47;;;;;;;10.18;5.63;;;;;;;27.30;42.87;95299.38;5008126;28;20234;-68
2022/06/04 08:29:14;;;;;;;12.10;5.97;;;;;;;27.15;44.02;95296.44;5006584;28;20215;-68
2022/06/04 08:31:40;;;;;;;9.25;6.85;;;;;;;27.28;44.01;95293.41;5005553;28;20204;-64
2022/06/04 08:34:06;;;;;;;12.40;6.63;;;;;;;27.37;43.05;95289.22;5007656;28;20213;-67
2022/06/04 08:36:32;;;;;;;9.70;7.13;;;;;;;27.37;44.04;95280.28;5008875;28;20230;-70
2022/06/04 08:38:58;;;;;;;12.85;7.78;;;;;;;27.48;43.45;95280.19;5007238;28;20229;-70
2022/06/04 08:41:49;;;;;;;9.45;7.43;;;;;;;27.53;43.69;95271.31;5007180;28;20214;-66
2022/06/04 08:44:22;;;;;;;11.32;7.38;;;;;;;27.56;43.99;95283.50;5011892;28;20265;-68
2022/06/04 08:47:09;;;;;;;8.25;6.82;;;;;;;27.81;41.81;95273.03;5005439;28;20285;-62
2022/06/04 08:49:55;;;;;;;7.45;6.55;;;;;;;27.77;41.90;95279.97;5038487;28;20195;-67
2022/06/04 08:52:28;;;;;;;7.55;5.57;;;;;;;27.58;41.02;95274.06;4978986;28;20216;-65
2022/06/04 08:57:51;;;;;;;5.95;5.35;;;;;;;27.85;39.09;95262.50;4966779;28;20243;-66
2022/06/04 09:00:21;;;;;;;6.85;5.53;;;;;;;27.91;38.76;95254.22;4950790;28;20216;-61
2022/06/04 09:02:52;;;;;;;9.52;5.07;;;;;;;27.89;38.01;95266.34;4950941;28;20238;-63
2022/06/04 09:05:24;;;;;;;8.02;5.25;;;;;;;28.01;39.93;95260.78;4952882;28;20259;-64
2022/06/04 09:07:56;;;;;;;9.95;5.43;;;;;;;28.11;39.51;95260.88;4997102;28;20262;-65
2022/06/04 09:10:27;;;;;;;7.90;5.03;;;;;;;28.36;38.73;95261.13;4987919;28;20223;-70
2022/06/04 09:13:05;;;;;;;8.18;4.90;;;;;;;28.47;38.29;95270.16;4987771;28;20309;-67
2022/06/04 09:15:36;;;;;;;6.43;5.30;;;;;;;28.34;38.39;95265.16;4989372;28;20227;-69
2022/06/04 09:18:17;;;;;;;5.85;5.35;;;;;;;28.32;38.72;95265.41;4974045;28;20251;-68
2022/06/04 09:20:49;;;;;;;5.22;4.72;;;;;;;28.37;38.66;95267.34;4991420;28;20382;-61
2022/06/04 09:23:35;;;;;;;5.93;5.32;;;;;;;28.53;39.13;95261.00;4990614;28;20333;-65
2022/06/04 09:26:53;;;;;;;5.88;4.85;;;;;;;28.68;39.22;95264.91;4966865;28;20231;-67
2022/06/04 09:29:49;;;;;;;6.65;5.00;;;;;;;28.87;37.09;95260.72;4872110;29;20232;-68
2022/06/04 09:32:44;;;;;;;6.10;4.88;;;;;;;28.82;37.27;95263.41;4858203;29;20247;-62
2022/06/04 09:35:18;;;;;;;8.25;5.22;;;;;;;28.93;37.22;95270.50;4859302;29;20231;-63
2022/06/04 09:37:46;;;;;;;6.70;4.97;;;;;;;28.78;36.92;95271.19;4859650;29;20207;-62
2022/06/04 09:40:19;;;;;;;6.70;4.85;;;;;;;28.77;36.13;95272.28;4861452;29;20212;-68
2022/06/04 09:42:45;;;;;;;7.57;4.85;;;;;;;29.16;35.40;95271.19;4860217;29;20322;-62
2022/06/04 09:45:27;;;;;;;5.25;4.55;;;;;;;29.26;35.88;95265.03;4857258;29;20358;-65
2022/06/04 09:47:55;;;;;;;5.72;4.40;;;;;;;29.25;35.27;95266.94;4861271;29;20224;-64
2022/06/04 09:50:29;;;;;;;5.55;4.97;;;;;;;29.14;36.47;95274.19;4862742;29;20244;-64
2022/06/04 09:53:12;;;;;;;5.43;4.93;;;;;;;28.73;36.85;95263.03;4862479;29;20315;-64
2022/06/04 09:55:45;;;;;;;6.63;5.03;;;;;;;29.24;35.87;95266.13;4860968;29;20212;-62
2022/06/04 09:58:32;;;;;;;5.10;4.65;;;;;;;29.44;36.25;95267.28;4859974;29;20250;-65
2022/06/04 10:01:16;;;;;;;6.88;5.55;;;;;;;29.45;37.12;95263.47;4857954;29;20216;-63
2022/06/04 10:03:43;;;;;;;5.97;5.32;;;;;;;29.46;36.88;95257.00;4857549;29;20239;-66
2022/06/04 10:06:24;;;;;;;6.32;5.72;;;;;;;29.33;36.01;95262.91;4959724;28;20305;-68
2022/06/04 10:11:59;;;;;;;5.55;5.13;;;;;;;29.34;34.37;95246.38;5038955;28;20288;-64
2022/06/04 10:14:42;;;;;;;6.90;5.60;;;;;;;29.46;34.78;95243.47;5003737;28;20266;-65
2022/06/04 10:17:20;;;;;;;7.30;5.63;;;;;;;29.55;34.97;95249.16;5009656;28;20222;-64
2022/06/04 10:19:54;;;;;;;6.80;4.85;;;;;;;29.39;35.09;95251.81;5038656;28;20230;-63
2022/06/04 10:22:20;;;;;;;7.35;5.15;;;;;;;29.69;33.93;95247.63;5040234;28;20209;-68
2022/06/04 10:24:59;;;;;;;5.25;4.47;;;;;;;29.73;33.95;95237.06;5013055;28;20230;-69
2022/06/04 10:27:37;;;;;;;6.68;5.00;;;;;;;29.69;34.56;95239.47;4998998;28;20332;-66
2022/06/04 10:30:29;;;;;;;9.48;5.15;;;;;;;29.76;34.15;95237.34;5010579;28;20230;-69
2022/06/04 10:33:01;;;;;;;6.78;5.22;;;;;;;29.98;33.10;95239.81;4996505;28;20229;-68
2022/06/04 10:35:35;;;;;;;7.25;5.10;;;;;;;29.92;34.01;95234.69;5018079;28;20294;-65
2022/06/04 10:38:27;;;;;;;7.50;5.15;;;;;;;30.30;33.47;95236.91;5006876;28;20222;-62
2022/06/04 10:41:13;;;;;;;5.28;4.57;;;;;;;30.56;31.81;95228.78;5011577;28;20230;-68
2022/06/04 10:43:57;;;;;;;6.03;5.43;;;;;;;30.47;32.64;95219.53;5015318;28;20203;-67
2022/06/04 10:46:25;;;;;;;7.75;5.13;;;;;;;30.33;33.80;95213.84;5008170;28;20206;-64
2022/06/04 10:49:43;;;;;;;7.97;5.10;;;;;;;30.18;34.71;95216.50;5040972;28;20226;-64
2022/06/04 10:52:27;;;;;;;6.35;5.72;;;;;;;30.37;34.72;95220.38;4987900;28;20304;-64
2022/06/04 10:55:20;;;;;;;5.75;5.15;;;;;;;30.37;33.30;95214.09;4975228;28;20244;-67
2022/06/04 10:58:21;;;;;;;6.25;5.57;;;;;;;30.07;34.13;95210.28;4984996;28;20444;-67
2022/06/04 11:01:11;;;;;;;7.25;5.72;;;;;;;29.87;34.73;95213.78;5008424;28;20214;-64
2022/06/04 11:03:55;;;;;;;6.68;5.10;;;;;;;29.94;34.65;95202.66;4990390;28;20235;-64
2022/06/04 11:06:34;;;;;;;7.00;5.50;;;;;;;30.16;34.46;95207.84;4980799;28;20235;-63
2022/06/04 11:09:08;;;;;;;8.20;5.70;;;;;;;30.11;34.87;95200.53;4990015;28;20227;-64
2022/06/04 11:11:52;;;;;;;6.43;5.45;;;;;;;30.05;33.83;95191.56;4979587;28;20282;-69
2022/06/04 11:14:50;;;;;;;6.40;5.70;;;;;;;30.22;33.56;95188.59;4977271;28;20227;-67
2022/06/04 11:17:23;;;;;;;9.63;6.00;;;;;;;30.25;33.82;95184.56;4955174;28;20232;-64
2022/06/04 11:19:54;;;;;;;9.38;5.47;;;;;;;30.22;33.40;95185.06;4952670;28;20244;-65
2022/06/04 11:22:55;;;;;;;9.15;5.47;;;;;;;30.60;33.35;95199.97;4936685;28;20274;-65
2022/06/04 11:25:30;;;;;;;6.53;5.85;;;;;;;30.64;32.77;95192.94;4873878;29;20235;-64
2022/06/04 11:28:07;;;;;;;7.45;5.40;;;;;;;30.86;31.84;95187.22;4881561;29;20228;-67
2022/06/04 11:30:51;;;;;;;7.43;5.00;;;;;;;31.19;31.82;95183.06;4891356;29;20321;-64
2022/06/04 11:33:31;;;;;;;7.53;4.95;;;;;;;31.38;31.89;95188.69;4899748;29;20238;-64
2022/06/04 11:36:18;;;;;;;6.35;5.80;;;;;;;31.35;32.04;95191.13;4893086;29;20234;-64
2022/06/04 11:38:55;;;;;;;7.28;6.50;;;;;;;31.43;31.29;95190.56;4893547;29;20226;-66
2022/06/04 11:41:38;;;;;;;8.05;6.47;;;;;;;31.80;31.04;95181.94;4894605;29;20232;-63
2022/06/04 11:44:35;;;;;;;7.32;6.57;;;;;;;32.04;30.34;95179.34;4902127;29;20323;-65
2022/06/04 11:47:28;;;;;;;8.50;6.32;;;;;;;32.25;29.75;95177.28;4890225;29;20241;-69
2022/06/04 11:50:04;;;;;;;7.45;6.45;;;;;;;32.20;30.09;95174.59;4911344;29;20235;-67
2022/06/04 11:52:33;;;;;;;7.05;6.38;;;;;;;32.57;29.80;95177.84;4895208;29;20287;-65
2022/06/04 11:55:20;;;;;;;6.82;6.22;;;;;;;32.90;28.56;95178.88;4929157;28;20212;-63
2022/06/04 11:58:08;;;;;;;7.20;6.45;;;;;;;32.67;28.86;95172.31;4964257;28;20402;-68
2022/06/04 12:00:42;;;;;;;8.63;6.85;;;;;;;32.53;28.98;95168.63;4952156;28;20274;-63
2022/06/04 12:03:14;;;;;;;7.43;6.47;;;;;;;32.30;30.33;95171.78;5005773;28;20747;-68